createdAt,value
2024-01-11T00:00:11.469Z,25.27
2024-01-11T00:01:14.659Z,24.87
2024-01-11T00:02:19.108Z,24.60
2024-01-11T00:03:22.118Z,25.73
2024-01-11T00:04:25.212Z,25.08
2024-01-11T00:05:28.285Z,22.17
2024-01-11T00:06:31.616Z,23.95
2024-01-11T00:07:34.315Z,22.50
2024-01-11T00:08:37.019Z,22.48
2024-01-11T00:09:43.798Z,21.90
2024-01-11T00:10:46.728Z,21.80
2024-01-11T00:11:50.234Z,21.45
2024-01-11T00:12:53.198Z,21.42
2024-01-11T00:13:55.913Z,20.80
2024-01-11T00:15:00.371Z,21.40
2024-01-11T00:16:03.774Z,20.40
2024-01-11T00:17:07.097Z,21.73
2024-01-11T00:18:09.887Z,20.80
2024-01-11T00:19:12.641Z,21.10
2024-01-11T00:20:15.794Z,20.48
2024-01-11T00:21:18.977Z,21.58
2024-01-11T00:22:22.015Z,21.60
2024-01-11T00:23:24.983Z,21.20
2024-01-11T00:24:27.971Z,19.27
2024-01-11T00:25:30.812Z,22.85
2024-01-11T00:26:33.719Z,21.17
2024-01-11T00:27:37.059Z,22.00
2024-01-11T00:28:40.341Z,22.02
2024-01-11T00:29:43.330Z,22.15
2024-01-11T00:30:46.401Z,22.17
2024-01-11T00:31:49.346Z,22.77
2024-01-11T00:32:52.820Z,22.62
2024-01-11T00:33:55.878Z,21.42
2024-01-11T00:34:59.137Z,21.08
2024-01-11T00:36:03.209Z,20.67
2024-01-11T00:37:06.183Z,20.80
2024-01-11T00:38:09.207Z,19.95
2024-01-11T00:39:13.032Z,19.80
2024-01-11T00:40:15.869Z,19.92
2024-01-11T00:41:18.997Z,20.37
2024-01-11T00:42:21.721Z,20.70
2024-01-11T00:43:24.900Z,20.00
2024-01-11T00:44:27.638Z,20.25
2024-01-11T00:45:30.642Z,19.80
2024-01-11T00:46:33.552Z,19.65
2024-01-11T00:47:36.550Z,20.70
2024-01-11T00:48:39.914Z,20.70
2024-01-11T00:49:44.102Z,19.50
2024-01-11T00:50:47.008Z,20.45
2024-01-11T00:51:49.919Z,20.30
2024-01-11T00:52:52.675Z,20.83
2024-01-11T00:53:55.947Z,21.17
2024-01-11T00:54:58.742Z,18.55
2024-01-11T00:56:02.117Z,19.25
2024-01-11T00:57:05.072Z,19.95
2024-01-11T00:58:07.944Z,20.37
2024-01-11T00:59:11.091Z,18.80
2024-01-11T01:00:17.372Z,19.23
2024-01-11T01:01:20.235Z,18.87
2024-01-11T01:02:23.363Z,18.35
2024-01-11T01:03:26.616Z,19.45
2024-01-11T01:04:29.884Z,19.30
2024-01-11T01:05:32.904Z,18.83
2024-01-11T01:06:35.706Z,18.55
2024-01-11T01:07:38.329Z,19.60
2024-01-11T01:08:41.145Z,19.97
2024-01-11T01:09:44.467Z,20.42
2024-01-11T01:10:47.384Z,18.50
2024-01-11T01:11:50.506Z,19.70
2024-01-11T01:12:53.497Z,19.65
2024-01-11T01:13:56.133Z,20.73
2024-01-11T01:14:59.112Z,19.25
2024-01-11T01:16:02.093Z,19.65
2024-01-11T01:17:05.043Z,20.35
2024-01-11T01:18:08.222Z,20.55
2024-01-11T01:19:12.292Z,20.63
2024-01-11T01:20:15.992Z,21.02
2024-01-11T01:21:18.638Z,21.25
2024-01-11T01:22:21.542Z,21.83
2024-01-11T01:23:24.300Z,21.08
2024-01-11T01:24:27.254Z,22.10
2024-01-11T01:25:30.512Z,21.17
2024-01-11T01:26:33.160Z,22.05
2024-01-11T01:27:35.947Z,21.52
2024-01-11T01:28:39.129Z,22.13
2024-01-11T01:29:42.102Z,21.30
2024-01-11T01:30:45.441Z,23.38
2024-01-11T01:31:48.388Z,22.20
2024-01-11T01:32:51.152Z,22.77
2024-01-11T01:33:54.055Z,24.00
2024-01-11T01:34:56.784Z,24.33
2024-01-11T01:35:59.756Z,24.85
2024-01-11T01:37:02.655Z,24.67
2024-01-11T01:38:05.619Z,23.83
2024-01-11T01:39:08.809Z,23.75
2024-01-11T01:40:13.060Z,23.60
2024-01-11T01:41:16.143Z,24.48
2024-01-11T01:42:19.176Z,23.70
2024-01-11T01:43:21.844Z,23.70
2024-01-11T01:44:24.761Z,24.65
2024-01-11T01:45:28.449Z,24.15
2024-01-11T01:46:31.871Z,24.63
2024-01-11T01:47:34.940Z,24.70
2024-01-11T01:48:38.791Z,25.25
2024-01-11T01:49:42.734Z,25.83
2024-01-11T01:50:51.510Z,25.73
2024-01-11T01:51:55.105Z,26.62
2024-01-11T01:52:58.847Z,24.83
2024-01-11T01:54:03.152Z,25.55
2024-01-11T01:55:07.965Z,26.35
2024-01-11T01:56:11.688Z,25.98
2024-01-11T01:57:16.698Z,25.73
2024-01-11T01:58:20.547Z,26.00
2024-01-11T01:59:26.867Z,25.20
2024-01-11T02:00:29.901Z,25.70
2024-01-11T02:01:34.182Z,24.57
2024-01-11T02:02:37.555Z,24.12
2024-01-11T02:03:41.517Z,25.25
2024-01-11T02:04:44.189Z,25.90
2024-01-11T02:05:47.962Z,26.52
2024-01-11T02:06:53.611Z,24.27
2024-01-11T02:07:58.755Z,25.62
2024-01-11T02:09:05.604Z,24.87
2024-01-11T02:10:08.925Z,25.08
2024-01-11T02:11:12.532Z,25.10
2024-01-11T02:12:16.584Z,24.67
2024-01-11T02:13:20.945Z,23.92
2024-01-11T02:14:24.366Z,24.65
2024-01-11T02:15:27.278Z,25.08
2024-01-11T02:16:30.149Z,25.23
2024-01-11T02:17:33.517Z,26.20
2024-01-11T02:18:36.454Z,24.45
2024-01-11T02:19:39.691Z,26.67
2024-01-11T02:20:42.706Z,25.52
2024-01-11T02:21:50.260Z,25.80
2024-01-11T02:22:59.791Z,26.03
2024-01-11T02:24:06.675Z,26.30
2024-01-11T02:25:09.647Z,26.20
2024-01-11T02:26:14.583Z,26.85
2024-01-11T02:27:17.545Z,25.42
2024-01-11T02:28:20.693Z,26.80
2024-01-11T02:29:23.599Z,25.88
2024-01-11T02:30:26.666Z,26.10
2024-01-11T02:31:29.935Z,26.20
2024-01-11T02:32:32.897Z,25.88
2024-01-11T02:33:36.084Z,25.47
2024-01-11T02:34:39.296Z,26.10
2024-01-11T02:35:47.613Z,25.45
2024-01-11T02:36:51.204Z,27.55
2024-01-11T02:37:54.351Z,26.10
2024-01-11T02:38:57.482Z,26.17
2024-01-11T02:40:00.361Z,26.73
2024-01-11T02:41:04.706Z,27.70
2024-01-11T02:42:07.686Z,27.55
2024-01-11T02:43:13.928Z,27.48
2024-01-11T02:44:16.911Z,27.33
2024-01-11T02:45:20.159Z,27.33
2024-01-11T02:46:23.330Z,27.23
2024-01-11T02:47:26.347Z,26.87
2024-01-11T02:48:32.490Z,26.67
2024-01-11T02:49:36.083Z,27.10
2024-01-11T02:50:40.069Z,26.60
2024-01-11T02:51:43.434Z,27.25
2024-01-11T02:52:46.352Z,27.50
2024-01-11T02:53:49.144Z,28.92
2024-01-11T02:54:51.797Z,26.23
2024-01-11T02:55:54.715Z,29.00
2024-01-11T02:56:58.514Z,28.00
2024-01-11T02:58:01.377Z,27.50
2024-01-11T02:59:04.452Z,28.42
2024-01-11T03:00:07.856Z,28.23
2024-01-11T03:01:10.690Z,27.55
2024-01-11T03:02:14.116Z,27.42
2024-01-11T03:03:17.143Z,26.08
2024-01-11T03:04:19.805Z,27.95
2024-01-11T03:05:22.754Z,27.23
2024-01-11T03:06:25.853Z,26.40
2024-01-11T03:07:29.754Z,25.92
2024-01-11T03:08:32.772Z,28.15
2024-01-11T03:09:35.927Z,27.02
2024-01-11T03:10:39.851Z,26.52
2024-01-11T03:11:42.595Z,25.25
2024-01-11T03:12:45.888Z,26.90
2024-01-11T03:13:48.705Z,26.40
2024-01-11T03:14:51.339Z,26.45
2024-01-11T03:15:54.352Z,24.47
2024-01-11T03:16:57.205Z,27.48
2024-01-11T03:18:00.446Z,26.15
2024-01-11T03:19:04.226Z,27.05
2024-01-11T03:20:08.599Z,28.25
2024-01-11T03:21:11.530Z,28.23
2024-01-11T03:22:15.168Z,28.33
2024-01-11T03:23:18.177Z,28.48
2024-01-11T03:24:21.190Z,28.33
2024-01-11T03:25:24.105Z,30.00
2024-01-11T03:26:27.032Z,29.00
2024-01-11T03:27:29.927Z,28.20
2024-01-11T03:28:33.203Z,28.60
2024-01-11T03:29:35.968Z,29.55
2024-01-11T03:30:39.038Z,30.42
2024-01-11T03:31:43.651Z,29.17
2024-01-11T03:32:46.443Z,26.80
2024-01-11T03:33:49.633Z,29.35
2024-01-11T03:34:52.682Z,30.00
2024-01-11T03:35:55.609Z,30.52
2024-01-11T03:36:58.627Z,29.57
2024-01-11T03:38:01.518Z,29.23
2024-01-11T03:39:04.543Z,28.73
2024-01-11T03:40:09.870Z,32.45
2024-01-11T03:41:12.730Z,35.42
2024-01-11T03:42:15.646Z,33.55
2024-01-11T03:43:19.319Z,33.40
2024-01-11T03:44:23.817Z,33.13
2024-01-11T03:45:26.795Z,33.75
2024-01-11T03:46:29.473Z,33.70
2024-01-11T03:47:32.108Z,32.23
2024-01-11T03:48:37.366Z,33.58
2024-01-11T03:49:40.380Z,33.08
2024-01-11T03:50:43.204Z,33.90
2024-01-11T03:51:45.900Z,33.58
2024-01-11T03:52:48.617Z,32.10
2024-01-11T03:53:51.590Z,33.00
2024-01-11T03:54:54.691Z,33.80
2024-01-11T03:55:57.341Z,31.83
2024-01-11T03:57:00.182Z,32.15
2024-01-11T03:58:03.074Z,30.30
2024-01-11T03:59:07.174Z,30.88
2024-01-11T04:00:11.789Z,29.95
2024-01-11T04:01:15.317Z,30.67
2024-01-11T04:02:18.430Z,30.05
2024-01-11T04:03:21.140Z,28.52
2024-01-11T04:04:24.057Z,30.05
2024-01-11T04:05:26.941Z,29.27
2024-01-11T04:06:30.308Z,28.70
2024-01-11T04:07:33.281Z,28.77
2024-01-11T04:08:36.638Z,26.10
2024-01-11T04:09:39.851Z,28.30
2024-01-11T04:10:42.468Z,28.70
2024-01-11T04:11:45.802Z,27.60
2024-01-11T04:12:49.352Z,28.77
2024-01-11T04:13:52.061Z,29.70
2024-01-11T04:14:54.741Z,27.48
2024-01-11T04:15:58.346Z,27.37
2024-01-11T04:17:01.548Z,28.20
2024-01-11T04:18:04.957Z,30.17
2024-01-11T04:19:07.873Z,26.50
2024-01-11T04:20:11.302Z,29.33
2024-01-11T04:21:24.584Z,27.67
2024-01-11T04:22:29.705Z,29.55
2024-01-11T04:23:32.426Z,29.20
2024-01-11T04:24:35.135Z,28.77
2024-01-11T04:25:38.039Z,28.70
2024-01-11T04:26:40.833Z,29.40
2024-01-11T04:27:43.777Z,30.60
2024-01-11T04:28:47.678Z,31.45
2024-01-11T04:29:51.087Z,29.80
2024-01-11T04:30:53.930Z,30.95
2024-01-11T04:31:56.825Z,30.48
2024-01-11T04:33:00.466Z,29.67
2024-01-11T04:34:03.718Z,30.40
2024-01-11T04:35:07.025Z,28.95
2024-01-11T04:36:10.876Z,28.75
2024-01-11T04:37:13.872Z,28.80
2024-01-11T04:38:17.119Z,28.65
2024-01-11T04:39:21.375Z,29.52
2024-01-11T04:40:26.224Z,29.37
2024-01-11T04:41:29.405Z,28.85
2024-01-11T04:42:32.315Z,28.17
2024-01-11T04:43:40.474Z,30.15
2024-01-11T04:44:43.446Z,28.30
2024-01-11T04:45:46.384Z,28.90
2024-01-11T04:46:49.345Z,28.38
2024-01-11T04:47:53.132Z,29.17
2024-01-11T04:48:56.683Z,31.20
2024-01-11T04:50:00.304Z,30.35
2024-01-11T04:51:03.438Z,29.43
2024-01-11T04:52:07.185Z,31.33
2024-01-11T04:53:10.196Z,28.80
2024-01-11T04:54:13.358Z,30.10
2024-01-11T04:55:16.265Z,29.77
2024-01-11T04:56:19.299Z,28.77
2024-01-11T04:57:22.010Z,28.83
2024-01-11T04:58:24.975Z,28.17
2024-01-11T04:59:28.342Z,29.48
2024-01-11T05:00:31.360Z,28.73
2024-01-11T05:01:34.290Z,29.03
2024-01-11T05:02:37.078Z,28.77
2024-01-11T05:03:40.158Z,31.00
2024-01-11T05:04:43.422Z,32.60
2024-01-11T05:05:46.329Z,36.25
2024-01-11T05:06:49.351Z,35.75
2024-01-11T05:07:52.388Z,38.33
2024-01-11T05:08:55.417Z,41.33
2024-01-11T05:09:58.667Z,41.22
2024-01-11T05:11:01.669Z,41.75
2024-01-11T05:12:05.921Z,43.13
2024-01-11T05:13:08.820Z,42.47
2024-01-11T05:14:11.728Z,43.97
2024-01-11T05:15:14.913Z,46.42
2024-01-11T05:16:25.023Z,46.70
2024-01-11T05:17:28.424Z,48.80
2024-01-11T05:18:34.708Z,46.92
2024-01-11T05:19:38.211Z,47.03
2024-01-11T05:20:41.818Z,47.70
2024-01-11T05:21:44.807Z,46.37
2024-01-11T05:22:47.596Z,39.43
2024-01-11T05:23:50.504Z,40.30
2024-01-11T05:24:53.363Z,39.92
2024-01-11T05:25:56.584Z,41.55
2024-01-11T05:27:00.404Z,39.40
2024-01-11T05:28:04.893Z,38.25
2024-01-11T05:29:07.703Z,36.00
2024-01-11T05:30:11.184Z,36.22
2024-01-11T05:31:16.546Z,35.28
2024-01-11T05:32:19.984Z,35.75
2024-01-11T05:33:22.715Z,34.17
2024-01-11T05:34:25.707Z,32.90
2024-01-11T05:35:28.946Z,33.38
2024-01-11T05:36:32.262Z,33.80
2024-01-11T05:37:35.253Z,35.17
2024-01-11T05:38:40.320Z,34.58
2024-01-11T05:39:46.161Z,39.03
2024-01-11T05:40:48.812Z,40.03
2024-01-11T05:41:52.040Z,40.53
2024-01-11T05:42:54.919Z,43.75
2024-01-11T05:43:57.657Z,39.10
2024-01-11T05:45:00.962Z,39.28
2024-01-11T05:46:04.585Z,39.50
2024-01-11T05:47:07.696Z,39.38
2024-01-11T05:48:12.308Z,41.08
2024-01-11T05:49:15.314Z,41.55
2024-01-11T05:50:18.448Z,39.38
2024-01-11T05:51:21.189Z,42.90
2024-01-11T05:52:24.077Z,44.67
2024-01-11T05:53:28.753Z,45.72
2024-01-11T05:54:31.546Z,46.00
2024-01-11T05:55:34.539Z,46.90
2024-01-11T05:56:37.554Z,42.95
2024-01-11T05:57:40.715Z,40.50
2024-01-11T05:58:43.468Z,42.92
2024-01-11T05:59:46.482Z,43.92
2024-01-11T06:00:49.347Z,45.08
2024-01-11T06:01:52.276Z,44.88
2024-01-11T06:02:54.925Z,44.38
2024-01-11T06:03:57.738Z,45.42
2024-01-11T06:05:00.713Z,43.00
2024-01-11T06:06:04.850Z,42.83
2024-01-11T06:07:08.211Z,40.15
2024-01-11T06:08:11.188Z,40.20
2024-01-11T06:09:14.105Z,41.10
2024-01-11T06:10:17.023Z,44.63
2024-01-11T06:11:19.761Z,45.53
2024-01-11T06:12:22.956Z,47.85
2024-01-11T06:13:25.957Z,47.85
2024-01-11T06:14:28.677Z,47.45
2024-01-11T06:15:33.273Z,46.40
2024-01-11T06:16:37.978Z,46.28
2024-01-11T06:17:41.694Z,43.25
2024-01-11T06:18:44.910Z,44.33
2024-01-11T06:19:47.846Z,41.65
2024-01-11T06:20:50.530Z,41.90
2024-01-11T06:21:53.407Z,38.40
2024-01-11T06:22:56.700Z,40.03
2024-01-11T06:23:59.688Z,37.20
2024-01-11T06:25:02.565Z,37.03
2024-01-11T06:26:05.770Z,36.03
2024-01-11T06:27:11.670Z,33.63
2024-01-11T06:28:17.845Z,34.53
2024-01-11T06:29:20.582Z,32.88
2024-01-11T06:30:26.630Z,34.10
2024-01-11T06:31:30.940Z,31.75
2024-01-11T06:32:33.657Z,28.58
2024-01-11T06:33:38.501Z,29.87
2024-01-11T06:34:46.872Z,30.25
2024-01-11T06:35:49.878Z,28.12
2024-01-11T06:36:53.667Z,26.73
2024-01-11T06:37:57.017Z,26.87
2024-01-11T06:39:00.189Z,26.05
2024-01-11T06:40:04.836Z,27.30
2024-01-11T06:41:08.098Z,27.27
2024-01-11T06:42:11.115Z,26.45
2024-01-11T06:43:14.129Z,25.00
2024-01-11T06:44:17.488Z,26.27
2024-01-11T06:45:20.290Z,28.17
2024-01-11T06:46:23.380Z,27.30
2024-01-11T06:47:26.910Z,28.67
2024-01-11T06:48:29.799Z,29.02
2024-01-11T06:49:33.176Z,29.73
2024-01-11T06:50:36.218Z,29.45
2024-01-11T06:51:40.323Z,30.60
2024-01-11T06:52:44.120Z,30.12
2024-01-11T06:53:47.026Z,49.55
2024-01-11T06:54:50.122Z,90.35
2024-01-11T06:55:53.963Z,99.78
2024-01-11T06:56:56.847Z,99.65
2024-01-11T06:58:00.307Z,91.30
2024-01-11T06:59:03.324Z,81.68
2024-01-11T07:00:08.909Z,71.22
2024-01-11T07:01:12.221Z,62.45
2024-01-11T07:02:15.375Z,58.42
2024-01-11T07:03:19.302Z,50.05
2024-01-11T07:04:22.133Z,44.45
2024-01-11T07:05:25.315Z,41.50
2024-01-11T07:06:28.865Z,43.47
2024-01-11T07:07:31.868Z,38.33
2024-01-11T07:08:34.718Z,34.47
2024-01-11T07:09:37.657Z,34.45
2024-01-11T07:10:41.598Z,33.70
2024-01-11T07:11:45.525Z,31.73
2024-01-11T07:12:49.212Z,28.75
2024-01-11T07:13:52.114Z,31.25
2024-01-11T07:14:54.969Z,29.77
2024-01-11T07:15:59.048Z,32.08
2024-01-11T07:17:01.727Z,30.00
2024-01-11T07:18:04.863Z,30.70
2024-01-11T07:19:07.990Z,31.20
2024-01-11T07:20:11.613Z,31.58
2024-01-11T07:21:21.375Z,32.35
2024-01-11T07:22:24.007Z,34.75
2024-01-11T07:23:27.634Z,32.72
2024-01-11T07:24:38.407Z,33.85
2024-01-11T07:25:42.266Z,32.85
2024-01-11T07:26:45.802Z,33.65
2024-01-11T07:27:48.510Z,31.60
2024-01-11T07:28:51.738Z,30.73
2024-01-11T07:29:54.468Z,31.47
2024-01-11T07:30:57.383Z,34.30
2024-01-11T07:32:01.303Z,37.33
2024-01-11T07:33:05.891Z,36.10
2024-01-11T07:34:09.049Z,36.88
2024-01-11T07:35:16.494Z,33.03
2024-01-11T07:36:21.726Z,32.08
2024-01-11T07:37:26.865Z,31.75
2024-01-11T07:38:29.519Z,30.58
2024-01-11T07:39:32.485Z,30.50
2024-01-11T07:40:36.759Z,31.37
2024-01-11T07:41:40.150Z,30.20
2024-01-11T07:42:44.037Z,30.58
2024-01-11T07:43:53.591Z,30.90
2024-01-11T07:44:57.734Z,30.35
2024-01-11T07:46:00.627Z,32.05
2024-01-11T07:47:03.426Z,29.37
2024-01-11T07:48:06.983Z,30.33
2024-01-11T07:49:09.952Z,30.85
2024-01-11T07:50:13.640Z,29.77
2024-01-11T07:51:16.736Z,28.30
2024-01-11T07:52:21.467Z,29.50
2024-01-11T07:53:24.866Z,28.67
2024-01-11T07:54:27.869Z,28.17
2024-01-11T07:55:30.735Z,27.52
2024-01-11T07:56:33.910Z,29.17
2024-01-11T07:57:37.047Z,27.60
2024-01-11T07:58:43.620Z,29.08
2024-01-11T07:59:47.278Z,27.62
2024-01-11T08:00:50.359Z,28.65
2024-01-11T08:01:54.877Z,28.43
2024-01-11T08:02:58.144Z,29.70
2024-01-11T08:04:03.963Z,27.98
2024-01-11T08:05:07.364Z,30.98
2024-01-11T08:06:10.707Z,31.52
2024-01-11T08:07:13.780Z,32.28
2024-01-11T08:08:16.332Z,29.35
2024-01-11T08:09:19.359Z,29.52
2024-01-11T08:10:22.015Z,27.87
2024-01-11T08:11:24.715Z,29.25
2024-01-11T08:12:27.863Z,30.67
2024-01-11T08:13:32.711Z,32.35
2024-01-11T08:14:35.628Z,32.88
2024-01-11T08:15:39.119Z,32.42
2024-01-11T08:16:41.957Z,32.08
2024-01-11T08:17:49.149Z,32.40
2024-01-11T08:18:52.387Z,31.65
2024-01-11T08:19:57.275Z,30.40
2024-01-11T08:21:00.319Z,29.25
2024-01-11T08:22:03.549Z,29.33
2024-01-11T08:23:07.916Z,28.53
2024-01-11T08:24:10.749Z,29.35
2024-01-11T08:25:14.311Z,29.60
2024-01-11T08:26:17.482Z,27.83
2024-01-11T08:27:20.616Z,28.75
2024-01-11T08:28:23.639Z,27.67
2024-01-11T08:29:26.585Z,27.37
2024-01-11T08:30:29.841Z,30.05
2024-01-11T08:31:34.412Z,28.62
2024-01-11T08:32:40.907Z,31.17
2024-01-11T08:33:44.389Z,30.40
2024-01-11T08:34:47.580Z,31.05
2024-01-11T08:35:50.266Z,31.58
2024-01-11T08:36:53.214Z,30.92
2024-01-11T08:37:56.153Z,28.65
2024-01-11T08:38:59.038Z,31.77
2024-01-11T08:40:01.621Z,30.52
2024-01-11T08:41:04.836Z,29.90
2024-01-11T08:42:07.718Z,29.80
2024-01-11T08:43:11.670Z,30.95
2024-01-11T08:44:14.960Z,28.53
2024-01-11T08:45:19.321Z,30.37
2024-01-11T08:46:26.872Z,29.70
2024-01-11T08:47:29.481Z,30.55
2024-01-11T08:48:32.477Z,29.35
2024-01-11T08:49:39.647Z,31.05
2024-01-11T08:50:42.552Z,30.80
2024-01-11T08:51:45.386Z,30.25
2024-01-11T08:52:48.133Z,29.92
2024-01-11T08:53:51.119Z,31.65
2024-01-11T08:54:54.402Z,29.13
2024-01-11T08:55:57.011Z,29.55
2024-01-11T08:57:00.282Z,30.37
2024-01-11T08:58:03.199Z,30.35
2024-01-11T08:59:06.082Z,31.33
2024-01-11T09:00:09.551Z,32.67
2024-01-11T09:01:12.563Z,30.15
2024-01-11T09:02:18.997Z,31.12
2024-01-11T09:03:23.989Z,30.65
2024-01-11T09:04:26.835Z,30.62
2024-01-11T09:05:30.238Z,29.07
2024-01-11T09:06:34.885Z,28.50
2024-01-11T09:07:37.609Z,28.30
2024-01-11T09:08:42.389Z,27.67
2024-01-11T09:09:51.306Z,29.50
2024-01-11T09:11:00.674Z,26.83
2024-01-11T09:12:03.959Z,26.35
2024-01-11T09:13:06.611Z,24.77
2024-01-11T09:14:12.419Z,26.77
2024-01-11T09:15:15.896Z,26.65
2024-01-11T09:16:19.093Z,25.80
2024-01-11T09:17:22.928Z,27.30
2024-01-11T09:18:26.207Z,26.42
2024-01-11T09:19:29.207Z,27.73
2024-01-11T09:20:32.139Z,27.75
2024-01-11T09:21:35.076Z,29.42
2024-01-11T09:22:37.683Z,31.27
2024-01-11T09:23:40.640Z,29.70
2024-01-11T09:24:43.556Z,30.35
2024-01-11T09:25:46.468Z,31.40
2024-01-11T09:26:51.219Z,29.93
2024-01-11T09:27:54.157Z,33.45
2024-01-11T09:28:57.038Z,32.45
2024-01-11T09:29:59.674Z,31.42
2024-01-11T09:31:03.265Z,30.62
2024-01-11T09:32:06.987Z,31.60
2024-01-11T09:33:09.852Z,30.27
2024-01-11T09:34:13.778Z,31.02
2024-01-11T09:35:16.990Z,30.92
2024-01-11T09:36:20.581Z,33.78
2024-01-11T09:37:23.876Z,30.20
2024-01-11T09:38:26.832Z,30.80
2024-01-11T09:39:30.094Z,32.20
2024-01-11T09:40:32.782Z,34.65
2024-01-11T09:41:39.215Z,33.97
2024-01-11T09:42:43.275Z,32.72
2024-01-11T09:43:50.022Z,31.87
2024-01-11T09:44:52.996Z,33.63
2024-01-11T09:45:57.474Z,32.03
2024-01-11T09:47:03.149Z,32.05
2024-01-11T09:48:09.465Z,31.60
2024-01-11T09:49:12.826Z,31.52
2024-01-11T09:50:19.267Z,31.37
2024-01-11T09:51:23.137Z,32.00
2024-01-11T09:52:27.399Z,33.90
2024-01-11T09:53:34.021Z,34.03
2024-01-11T09:54:39.146Z,31.73
2024-01-11T09:55:41.962Z,32.25
2024-01-11T09:56:45.197Z,31.35
2024-01-11T09:57:57.648Z,32.15
2024-01-11T09:59:01.194Z,30.80
2024-01-11T10:00:08.627Z,31.10
2024-01-11T10:01:13.573Z,28.73
2024-01-11T10:02:16.841Z,30.77
2024-01-11T10:03:19.749Z,30.10
2024-01-11T10:04:22.751Z,31.75
2024-01-11T10:05:25.532Z,29.65
2024-01-11T10:06:29.782Z,29.83
2024-01-11T10:07:34.866Z,29.02
2024-01-11T10:08:37.736Z,28.67
2024-01-11T10:09:40.402Z,28.93
2024-01-11T10:10:43.931Z,27.85
2024-01-11T10:11:48.022Z,30.67
2024-01-11T10:12:50.914Z,30.17
2024-01-11T10:14:00.666Z,30.75
2024-01-11T10:15:11.296Z,30.15
2024-01-11T10:16:16.526Z,27.98
2024-01-11T10:17:22.863Z,31.85
2024-01-11T10:18:27.272Z,33.30
2024-01-11T10:19:30.785Z,33.65
2024-01-11T10:20:34.030Z,33.57
2024-01-11T10:21:40.429Z,36.65
2024-01-11T10:22:47.646Z,36.55
2024-01-11T10:23:51.485Z,37.15
2024-01-11T10:25:13.394Z,34.47
2024-01-11T10:26:20.425Z,35.20
2024-01-11T10:27:28.012Z,30.48
2024-01-11T10:28:31.438Z,33.30
2024-01-11T10:29:37.708Z,31.83
2024-01-11T10:30:42.083Z,31.65
2024-01-11T10:31:45.035Z,28.90
2024-01-11T10:32:48.771Z,29.35
2024-01-11T10:33:52.400Z,29.70
2024-01-11T10:34:55.509Z,28.90
2024-01-11T10:35:58.217Z,29.85
2024-01-11T10:37:01.320Z,29.52
2024-01-11T10:38:12.915Z,29.12
2024-01-11T10:39:18.288Z,27.33
2024-01-11T10:40:25.381Z,28.30
2024-01-11T10:41:30.460Z,29.42
2024-01-11T10:42:36.146Z,28.20
2024-01-11T10:43:39.794Z,28.45
2024-01-11T10:44:48.064Z,28.50
2024-01-11T10:45:58.198Z,30.20
2024-01-11T10:47:04.909Z,31.60
2024-01-11T10:48:14.320Z,32.15
2024-01-11T10:49:19.477Z,32.50
2024-01-11T10:50:25.113Z,30.50
2024-01-11T10:51:32.576Z,31.65
2024-01-11T10:52:47.093Z,32.40
2024-01-11T10:53:52.863Z,29.47
2024-01-11T10:54:57.160Z,30.85
2024-01-11T10:56:01.312Z,29.23
2024-01-11T10:57:06.606Z,32.45
2024-01-11T10:58:11.745Z,31.10
2024-01-11T10:59:14.890Z,29.80
2024-01-11T11:00:19.553Z,30.00
2024-01-11T11:01:24.427Z,30.40
2024-01-11T11:02:27.719Z,31.52
2024-01-11T11:03:32.866Z,29.00
2024-01-11T11:04:36.994Z,29.57
2024-01-11T11:05:40.665Z,32.70
2024-01-11T11:06:44.470Z,29.95
2024-01-11T11:07:50.844Z,29.33
2024-01-11T11:08:54.678Z,30.52
2024-01-11T11:09:58.721Z,30.60
2024-01-11T11:11:06.051Z,33.25
2024-01-11T11:12:10.087Z,30.80
2024-01-11T11:13:16.231Z,29.95
2024-01-11T11:14:21.007Z,30.52
2024-01-11T11:15:25.182Z,30.27
2024-01-11T11:16:28.350Z,31.42
2024-01-11T11:17:31.717Z,31.50
2024-01-11T11:18:39.215Z,35.90
2024-01-11T11:19:42.765Z,35.10
2024-01-11T11:20:47.153Z,34.92
2024-01-11T11:21:51.648Z,34.92
2024-01-11T11:23:06.158Z,33.65
2024-01-11T11:24:08.928Z,30.02
2024-01-11T11:25:12.250Z,30.58
2024-01-11T11:26:21.727Z,29.57
2024-01-11T11:27:24.693Z,29.10
2024-01-11T11:28:27.984Z,29.42
2024-01-11T11:29:30.887Z,28.50
2024-01-11T11:30:37.622Z,28.87
2024-01-11T11:31:44.684Z,29.85
2024-01-11T11:32:47.836Z,28.27
2024-01-11T11:33:51.500Z,28.27
2024-01-11T11:34:54.933Z,27.52
2024-01-11T11:36:01.200Z,31.15
2024-01-11T11:37:04.491Z,33.40
2024-01-11T11:38:07.721Z,36.20
2024-01-11T11:39:14.738Z,33.75
2024-01-11T11:40:17.996Z,33.15
2024-01-11T11:41:21.949Z,33.92
2024-01-11T11:42:25.755Z,32.13
2024-01-11T11:43:30.150Z,31.35
2024-01-11T11:44:33.749Z,32.85
2024-01-11T11:45:38.150Z,33.95
2024-01-11T11:46:41.081Z,33.63
2024-01-11T11:47:47.251Z,32.47
2024-01-11T11:48:52.444Z,31.35
2024-01-11T11:50:15.209Z,30.35
2024-01-11T11:51:20.761Z,28.30
2024-01-11T11:52:24.249Z,28.00
2024-01-11T11:53:27.073Z,29.95
2024-01-11T11:54:30.281Z,29.73
2024-01-11T11:55:35.656Z,28.58
2024-01-11T11:56:39.064Z,29.83
2024-01-11T11:57:44.498Z,28.95
2024-01-11T11:58:48.244Z,30.10
2024-01-11T11:59:51.928Z,30.92
2024-01-11T12:00:56.305Z,29.20
2024-01-11T12:02:00.588Z,32.08
2024-01-11T12:03:05.197Z,31.83
2024-01-11T12:04:09.527Z,30.65
2024-01-11T12:05:12.596Z,30.15
2024-01-11T12:06:17.584Z,31.42
2024-01-11T12:07:24.301Z,29.90
2024-01-11T12:08:27.324Z,29.23
2024-01-11T12:09:30.562Z,28.43
2024-01-11T12:10:33.520Z,29.02
2024-01-11T12:11:36.213Z,29.17
2024-01-11T12:12:39.943Z,30.08
2024-01-11T12:13:44.081Z,28.83
2024-01-11T12:14:47.661Z,29.55
2024-01-11T12:15:50.694Z,27.10
2024-01-11T12:16:59.773Z,29.87
2024-01-11T12:18:02.910Z,27.65
2024-01-11T12:19:07.800Z,28.95
2024-01-11T12:20:11.226Z,29.97
2024-01-11T12:21:15.189Z,31.00
2024-01-11T12:22:18.514Z,30.02
2024-01-11T12:23:22.101Z,29.95
2024-01-11T12:24:25.096Z,29.63
2024-01-11T12:25:28.400Z,28.80
2024-01-11T12:26:31.416Z,29.60
2024-01-11T12:27:34.177Z,29.90
2024-01-11T12:28:37.600Z,29.48
2024-01-11T12:29:48.683Z,29.77
2024-01-11T12:30:58.404Z,30.30
2024-01-11T12:32:02.001Z,29.60
2024-01-11T12:33:06.774Z,28.67
2024-01-11T12:34:11.047Z,29.95
2024-01-11T12:35:14.248Z,30.58
2024-01-11T12:36:17.424Z,31.37
2024-01-11T12:37:21.310Z,29.37
2024-01-11T12:38:24.243Z,28.83
2024-01-11T12:39:27.977Z,28.58
2024-01-11T12:40:33.893Z,30.15
2024-01-11T12:41:37.518Z,28.87
2024-01-11T12:42:40.303Z,30.00
2024-01-11T12:43:43.608Z,30.23
2024-01-11T12:44:52.973Z,29.50
2024-01-11T12:45:57.367Z,32.53
2024-01-11T12:47:00.354Z,32.25
2024-01-11T12:48:05.164Z,31.62
2024-01-11T12:49:11.482Z,32.63
2024-01-11T12:50:14.570Z,30.95
2024-01-11T12:51:21.739Z,29.73
2024-01-11T12:52:28.510Z,28.77
2024-01-11T12:53:31.302Z,30.05
2024-01-11T12:54:34.968Z,29.90
2024-01-11T12:55:48.093Z,30.25
2024-01-11T12:56:57.577Z,30.48
2024-01-11T12:58:12.825Z,30.12
2024-01-11T12:59:17.613Z,31.27
2024-01-11T13:00:20.761Z,29.45
2024-01-11T13:01:23.795Z,29.65
2024-01-11T13:02:26.620Z,31.15
2024-01-11T13:03:29.785Z,29.27
2024-01-11T13:04:32.834Z,30.27
2024-01-11T13:05:39.034Z,30.45
2024-01-11T13:06:42.194Z,31.65
2024-01-11T13:07:45.217Z,31.60
2024-01-11T13:08:49.227Z,32.97
2024-01-11T13:09:52.222Z,31.37
2024-01-11T13:10:54.795Z,31.98
2024-01-11T13:11:57.777Z,30.50
2024-01-11T13:13:08.844Z,31.52
2024-01-11T13:14:20.192Z,31.43
2024-01-11T13:15:24.620Z,30.98
2024-01-11T13:16:27.475Z,30.65
2024-01-11T13:17:30.843Z,34.58
2024-01-11T13:18:34.111Z,33.83
2024-01-11T13:19:36.950Z,33.67
2024-01-11T13:20:39.746Z,33.88
2024-01-11T13:21:42.771Z,34.03
2024-01-11T13:22:47.921Z,33.30
2024-01-11T13:23:50.783Z,33.88
2024-01-11T13:24:53.722Z,33.87
2024-01-11T13:25:56.721Z,32.70
2024-01-11T13:26:59.627Z,32.83
2024-01-11T13:28:02.720Z,30.92
2024-01-11T13:29:05.385Z,31.65
2024-01-11T13:30:09.509Z,34.00
2024-01-11T13:31:12.304Z,31.08
2024-01-11T13:32:15.350Z,33.08
2024-01-11T13:33:19.445Z,32.35
2024-01-11T13:34:22.573Z,32.10
2024-01-11T13:35:25.515Z,32.63
2024-01-11T13:36:28.464Z,33.75
2024-01-11T13:37:31.236Z,31.95
2024-01-11T13:38:34.628Z,33.08
2024-01-11T13:39:37.532Z,33.10
2024-01-11T13:40:41.415Z,33.42
2024-01-11T13:41:45.507Z,33.90
2024-01-11T13:42:48.894Z,31.77